sensor_id;sensor_type;location;lat;lon;timestamp;temperature;humidity
32215;DHT22;18708;53.124;23.190;2023-02-28T00:00:22;-6.10;99.90
32215;DHT22;18708;53.124;23.190;2023-02-28T00:02:48;-6.20;99.90
32215;DHT22;18708;53.124;23.190;2023-02-28T00:05:16;-6.30;99.90
32215;DHT22;18708;53.124;23.190;2023-02-28T00:07:42;-6.30;99.90
32215;DHT22;18708;53.124;23.190;2023-02-28T00:10:14;-6.30;99.90
32215;DHT22;18708;53.124;23.190;2023-02-28T00:12:44;-6.30;99.90
32215;DHT22;18708;53.124;23.190;2023-02-28T00:15:11;-6.40;99.90
32215;DHT22;18708;53.124;23.190;2023-02-28T00:17:37;-6.20;99.90
32215;DHT22;18708;53.124;23.190;2023-02-28T00:20:04;-6.40;99.90
32215;DHT22;18708;53.124;23.190;2023-02-28T00:22:33;-6.30;99.90
32215;DHT22;18708;53.124;23.190;2023-02-28T00:24:59;-6.30;99.90
32215;DHT22;18708;53.124;23.190;2023-02-28T00:27:24;-6.40;99.90
32215;DHT22;18708;53.124;23.190;2023-02-28T00:29:50;-6.40;99.90
32215;DHT22;18708;53.124;23.190;2023-02-28T00:32:15;-6.30;99.90
32215;DHT22;18708;53.124;23.190;2023-02-28T00:34:41;-6.40;99.90
32215;DHT22;18708;53.124;23.190;2023-02-28T00:37:08;-6.50;99.90
32215;DHT22;18708;53.124;23.190;2023-02-28T00:39:36;-6.60;99.90
32215;DHT22;18708;53.124;23.190;2023-02-28T00:42:03;-6.60;99.90
32215;DHT22;18708;53.124;23.190;2023-02-28T00:44:29;-6.60;99.90
32215;DHT22;18708;53.124;23.190;2023-02-28T00:46:55;-6.70;99.90
32215;DHT22;18708;53.124;23.190;2023-02-28T00:49:22;-6.70;99.90
32215;DHT22;18708;53.124;23.190;2023-02-28T00:51:47;-6.80;99.90
32215;DHT22;18708;53.124;23.190;2023-02-28T00:54:13;-6.80;99.90
32215;DHT22;18708;53.124;23.190;2023-02-28T00:56:38;-6.80;99.90
32215;DHT22;18708;53.124;23.190;2023-02-28T00:59:04;-6.80;99.90
32215;DHT22;18708;53.124;23.190;2023-02-28T01:01:30;-6.90;99.90
32215;DHT22;18708;53.124;23.190;2023-02-28T01:03:55;-6.90;99.90
32215;DHT22;18708;53.124;23.190;2023-02-28T01:06:21;-6.90;99.90
32215;DHT22;18708;53.124;23.190;2023-02-28T01:08:48;-7.00;99.90
32215;DHT22;18708;53.124;23.190;2023-02-28T01:11:15;-7.00;99.90
32215;DHT22;18708;53.124;23.190;2023-02-28T01:13:43;-7.00;99.90
32215;DHT22;18708;53.124;23.190;2023-02-28T01:16:09;-7.00;99.90
32215;DHT22;18708;53.124;23.190;2023-02-28T01:18:34;-7.10;99.90
32215;DHT22;18708;53.124;23.190;2023-02-28T01:21:08;-7.10;99.90
32215;DHT22;18708;53.124;23.190;2023-02-28T01:23:34;-7.00;99.90
32215;DHT22;18708;53.124;23.190;2023-02-28T01:26:20;-6.90;99.90
32215;DHT22;18708;53.124;23.190;2023-02-28T01:28:48;-6.90;99.90
32215;DHT22;18708;53.124;23.190;2023-02-28T01:31:15;-6.90;99.90
32215;DHT22;18708;53.124;23.190;2023-02-28T01:33:41;-6.90;99.90
32215;DHT22;18708;53.124;23.190;2023-02-28T01:36:15;-7.00;99.90
32215;DHT22;18708;53.124;23.190;2023-02-28T01:38:42;-7.10;99.90
32215;DHT22;18708;53.124;23.190;2023-02-28T01:41:08;-7.20;99.90
32215;DHT22;18708;53.124;23.190;2023-02-28T01:46:08;-7.20;99.90
32215;DHT22;18708;53.124;23.190;2023-02-28T01:48:38;-7.20;99.90
32215;DHT22;18708;53.124;23.190;2023-02-28T01:51:10;-7.10;99.90
32215;DHT22;18708;53.124;23.190;2023-02-28T01:53:41;-7.10;99.90
32215;DHT22;18708;53.124;23.190;2023-02-28T01:56:10;-7.20;99.90
32215;DHT22;18708;53.124;23.190;2023-02-28T01:58:37;-7.30;99.90
32215;DHT22;18708;53.124;23.190;2023-02-28T02:01:03;-7.30;99.90
32215;DHT22;18708;53.124;23.190;2023-02-28T02:03:30;-7.40;99.90
32215;DHT22;18708;53.124;23.190;2023-02-28T02:05:56;-7.50;99.90
32215;DHT22;18708;53.124;23.190;2023-02-28T02:08:28;-7.50;99.90
32215;DHT22;18708;53.124;23.190;2023-02-28T02:10:57;-7.50;99.90
32215;DHT22;18708;53.124;23.190;2023-02-28T02:14:05;-7.60;99.90
32215;DHT22;18708;53.124;23.190;2023-02-28T02:17:07;-7.50;99.90
32215;DHT22;18708;53.124;23.190;2023-02-28T02:25:54;-7.80;99.90
32215;DHT22;18708;53.124;23.190;2023-02-28T02:39:31;-7.90;99.90
32215;DHT22;18708;53.124;23.190;2023-02-28T02:42:03;-7.90;99.90
32215;DHT22;18708;53.124;23.190;2023-02-28T02:44:40;-7.90;99.90
32215;DHT22;18708;53.124;23.190;2023-02-28T02:47:20;-7.80;99.90
32215;DHT22;18708;53.124;23.190;2023-02-28T02:49:51;-7.90;99.90
32215;DHT22;18708;53.124;23.190;2023-02-28T02:52:22;-8.00;99.90
32215;DHT22;18708;53.124;23.190;2023-02-28T02:54:50;-8.00;99.90
32215;DHT22;18708;53.124;23.190;2023-02-28T02:57:44;-8.10;99.90
32215;DHT22;18708;53.124;23.190;2023-02-28T03:00:12;-8.10;99.90
32215;DHT22;18708;53.124;23.190;2023-02-28T03:02:40;-8.00;99.90
32215;DHT22;18708;53.124;23.190;2023-02-28T03:05:17;-8.10;99.90
32215;DHT22;18708;53.124;23.190;2023-02-28T03:07:43;-8.20;99.90
32215;DHT22;18708;53.124;23.190;2023-02-28T03:21:38;-8.20;99.90
32215;DHT22;18708;53.124;23.190;2023-02-28T03:24:27;-8.20;99.90
32215;DHT22;18708;53.124;23.190;2023-02-28T03:27:03;-8.20;99.90
32215;DHT22;18708;53.124;23.190;2023-02-28T03:29:37;-8.30;99.90
32215;DHT22;18708;53.124;23.190;2023-02-28T03:32:11;-8.20;99.90
32215;DHT22;18708;53.124;23.190;2023-02-28T03:34:46;-8.20;99.90
32215;DHT22;18708;53.124;23.190;2023-02-28T03:37:18;-8.20;99.90
32215;DHT22;18708;53.124;23.190;2023-02-28T03:39:59;-8.30;99.90
32215;DHT22;18708;53.124;23.190;2023-02-28T03:42:28;-8.30;99.90
32215;DHT22;18708;53.124;23.190;2023-02-28T03:45:00;-8.40;99.90
32215;DHT22;18708;53.124;23.190;2023-02-28T03:47:29;-8.50;99.90
32215;DHT22;18708;53.124;23.190;2023-02-28T03:50:14;-8.50;99.90
32215;DHT22;18708;53.124;23.190;2023-02-28T03:52:56;-8.50;99.90
32215;DHT22;18708;53.124;23.190;2023-02-28T03:55:28;-8.50;99.90
32215;DHT22;18708;53.124;23.190;2023-02-28T04:00:54;-8.60;99.90
32215;DHT22;18708;53.124;23.190;2023-02-28T04:03:20;-8.50;99.90
32215;DHT22;18708;53.124;23.190;2023-02-28T04:05:54;-8.50;99.90
32215;DHT22;18708;53.124;23.190;2023-02-28T04:08:21;-8.50;99.90
32215;DHT22;18708;53.124;23.190;2023-02-28T04:10:54;-8.40;99.90
32215;DHT22;18708;53.124;23.190;2023-02-28T04:13:20;-8.30;99.90
32215;DHT22;18708;53.124;23.190;2023-02-28T04:15:46;-8.50;99.90
32215;DHT22;18708;53.124;23.190;2023-02-28T04:18:11;-8.50;99.90
32215;DHT22;18708;53.124;23.190;2023-02-28T04:20:37;-8.60;99.90
32215;DHT22;18708;53.124;23.190;2023-02-28T04:23:02;-8.60;99.90
32215;DHT22;18708;53.124;23.190;2023-02-28T04:25:28;-8.60;99.90
32215;DHT22;18708;53.124;23.190;2023-02-28T04:27:53;-8.70;99.90
32215;DHT22;18708;53.124;23.190;2023-02-28T04:30:19;-8.70;99.90
32215;DHT22;18708;53.124;23.190;2023-02-28T04:32:45;-8.80;99.90
32215;DHT22;18708;53.124;23.190;2023-02-28T04:35:10;-8.80;99.90
32215;DHT22;18708;53.124;23.190;2023-02-28T04:37:36;-8.70;99.90
32215;DHT22;18708;53.124;23.190;2023-02-28T04:40:03;-8.60;99.90
32215;DHT22;18708;53.124;23.190;2023-02-28T04:42:29;-8.60;99.90
32215;DHT22;18708;53.124;23.190;2023-02-28T04:45:04;-8.50;99.90
32215;DHT22;18708;53.124;23.190;2023-02-28T04:47:30;-8.60;99.90
32215;DHT22;18708;53.124;23.190;2023-02-28T04:49:56;-8.70;99.90
32215;DHT22;18708;53.124;23.190;2023-02-28T04:52:22;-8.90;99.90
32215;DHT22;18708;53.124;23.190;2023-02-28T04:54:47;-8.90;99.90
32215;DHT22;18708;53.124;23.190;2023-02-28T04:57:13;-8.80;99.90
32215;DHT22;18708;53.124;23.190;2023-02-28T04:59:39;-8.70;99.90
32215;DHT22;18708;53.124;23.190;2023-02-28T05:02:05;-8.70;99.90
32215;DHT22;18708;53.124;23.190;2023-02-28T05:04:33;-8.60;99.90
32215;DHT22;18708;53.124;23.190;2023-02-28T05:07:00;-8.60;99.90
32215;DHT22;18708;53.124;23.190;2023-02-28T05:09:26;-8.70;99.90
32215;DHT22;18708;53.124;23.190;2023-02-28T05:11:51;-8.60;99.90
32215;DHT22;18708;53.124;23.190;2023-02-28T05:14:17;-8.70;99.90
32215;DHT22;18708;53.124;23.190;2023-02-28T05:16:42;-8.70;99.90
32215;DHT22;18708;53.124;23.190;2023-02-28T05:19:08;-8.80;99.90
32215;DHT22;18708;53.124;23.190;2023-02-28T05:21:39;-8.90;99.90
32215;DHT22;18708;53.124;23.190;2023-02-28T05:24:09;-8.90;99.90
32215;DHT22;18708;53.124;23.190;2023-02-28T05:26:38;-8.70;99.90
32215;DHT22;18708;53.124;23.190;2023-02-28T05:29:04;-8.70;99.90
32215;DHT22;18708;53.124;23.190;2023-02-28T05:31:30;-8.60;99.90
32215;DHT22;18708;53.124;23.190;2023-02-28T05:33:56;-8.70;99.90
32215;DHT22;18708;53.124;23.190;2023-02-28T05:36:22;-8.70;99.90
32215;DHT22;18708;53.124;23.190;2023-02-28T05:38:48;-8.70;99.90
32215;DHT22;18708;53.124;23.190;2023-02-28T05:41:15;-8.80;99.90
32215;DHT22;18708;53.124;23.190;2023-02-28T05:43:40;-8.70;99.90
32215;DHT22;18708;53.124;23.190;2023-02-28T05:46:08;-8.80;99.90
32215;DHT22;18708;53.124;23.190;2023-02-28T05:48:35;-8.80;99.90
32215;DHT22;18708;53.124;23.190;2023-02-28T05:51:01;-8.70;99.90
32215;DHT22;18708;53.124;23.190;2023-02-28T05:53:28;-8.70;99.90
32215;DHT22;18708;53.124;23.190;2023-02-28T05:55:54;-8.70;99.90
32215;DHT22;18708;53.124;23.190;2023-02-28T05:58:20;-8.70;99.90
32215;DHT22;18708;53.124;23.190;2023-02-28T06:00:45;-8.60;99.90
32215;DHT22;18708;53.124;23.190;2023-02-28T06:03:11;-8.40;99.90
32215;DHT22;18708;53.124;23.190;2023-02-28T06:05:36;-8.20;99.90
32215;DHT22;18708;53.124;23.190;2023-02-28T06:08:04;-8.20;99.90
32215;DHT22;18708;53.124;23.190;2023-02-28T06:10:31;-8.00;99.90
32215;DHT22;18708;53.124;23.190;2023-02-28T06:13:00;-8.10;99.90
32215;DHT22;18708;53.124;23.190;2023-02-28T06:15:28;-7.90;99.90
32215;DHT22;18708;53.124;23.190;2023-02-28T06:17:54;-7.70;99.90
32215;DHT22;18708;53.124;23.190;2023-02-28T06:20:21;-7.60;99.90
32215;DHT22;18708;53.124;23.190;2023-02-28T06:22:47;-7.30;99.90
32215;DHT22;18708;53.124;23.190;2023-02-28T06:25:13;-7.10;99.90
32215;DHT22;18708;53.124;23.190;2023-02-28T06:27:38;-6.90;99.90
32215;DHT22;18708;53.124;23.190;2023-02-28T06:30:04;-6.60;99.90
32215;DHT22;18708;53.124;23.190;2023-02-28T06:32:30;-6.40;99.90
32215;DHT22;18708;53.124;23.190;2023-02-28T06:34:56;-6.10;99.90
32215;DHT22;18708;53.124;23.190;2023-02-28T06:37:23;-5.90;99.90
32215;DHT22;18708;53.124;23.190;2023-02-28T06:39:51;-5.80;99.90
32215;DHT22;18708;53.124;23.190;2023-02-28T06:42:17;-5.60;99.90
32215;DHT22;18708;53.124;23.190;2023-02-28T06:44:43;-5.40;99.90
32215;DHT22;18708;53.124;23.190;2023-02-28T06:47:09;-4.90;99.90
32215;DHT22;18708;53.124;23.190;2023-02-28T06:49:36;-4.60;99.90
32215;DHT22;18708;53.124;23.190;2023-02-28T06:52:02;-4.40;99.90
32215;DHT22;18708;53.124;23.190;2023-02-28T06:54:28;-4.10;99.90
32215;DHT22;18708;53.124;23.190;2023-02-28T06:56:54;-3.60;99.90
32215;DHT22;18708;53.124;23.190;2023-02-28T06:59:20;-3.20;99.90
32215;DHT22;18708;53.124;23.190;2023-02-28T07:01:45;-2.90;99.90
32215;DHT22;18708;53.124;23.190;2023-02-28T07:04:11;-2.40;99.90
32215;DHT22;18708;53.124;23.190;2023-02-28T07:06:38;-2.10;99.90
32215;DHT22;18708;53.124;23.190;2023-02-28T07:09:04;-2.10;99.90
32215;DHT22;18708;53.124;23.190;2023-02-28T07:11:30;-1.80;99.90
32215;DHT22;18708;53.124;23.190;2023-02-28T07:13:56;-1.70;99.90
32215;DHT22;18708;53.124;23.190;2023-02-28T07:16:23;-1.60;99.90
32215;DHT22;18708;53.124;23.190;2023-02-28T07:18:49;-1.20;99.90
32215;DHT22;18708;53.124;23.190;2023-02-28T07:21:15;-0.60;99.90
32215;DHT22;18708;53.124;23.190;2023-02-28T07:23:41;-0.80;99.90
32215;DHT22;18708;53.124;23.190;2023-02-28T07:26:10;-0.40;99.90
32215;DHT22;18708;53.124;23.190;2023-02-28T07:28:36;-0.20;99.90
32215;DHT22;18708;53.124;23.190;2023-02-28T07:31:05;-0.20;99.90
32215;DHT22;18708;53.124;23.190;2023-02-28T07:33:31;-0.20;1.00
32215;DHT22;18708;53.124;23.190;2023-02-28T07:36:03;0.20;99.90
32215;DHT22;18708;53.124;23.190;2023-02-28T07:38:29;0.30;1.00
32215;DHT22;18708;53.124;23.190;2023-02-28T07:40:55;0.50;1.00
32215;DHT22;18708;53.124;23.190;2023-02-28T07:43:20;0.20;99.90
32215;DHT22;18708;53.124;23.190;2023-02-28T07:45:46;0.10;1.00
32215;DHT22;18708;53.124;23.190;2023-02-28T07:48:11;0.90;80.70
32215;DHT22;18708;53.124;23.190;2023-02-28T07:50:37;1.30;1.00
32215;DHT22;18708;53.124;23.190;2023-02-28T07:53:03;1.60;1.00
32215;DHT22;18708;53.124;23.190;2023-02-28T07:55:29;2.50;1.00
32215;DHT22;18708;53.124;23.190;2023-02-28T07:57:57;2.30;1.00
32215;DHT22;18708;53.124;23.190;2023-02-28T08:00:23;1.90;1.00
32215;DHT22;18708;53.124;23.190;2023-02-28T08:02:48;3.00;1.00
32215;DHT22;18708;53.124;23.190;2023-02-28T08:05:14;3.70;1.00
32215;DHT22;18708;53.124;23.190;2023-02-28T08:07:40;3.90;99.90
32215;DHT22;18708;53.124;23.190;2023-02-28T08:10:06;3.50;99.90
32215;DHT22;18708;53.124;23.190;2023-02-28T08:12:32;3.90;99.90
32215;DHT22;18708;53.124;23.190;2023-02-28T08:14:57;3.30;1.00
32215;DHT22;18708;53.124;23.190;2023-02-28T08:17:23;2.90;1.00
32215;DHT22;18708;53.124;23.190;2023-02-28T08:19:49;3.20;1.00
32215;DHT22;18708;53.124;23.190;2023-02-28T08:22:14;3.40;1.00
32215;DHT22;18708;53.124;23.190;2023-02-28T08:24:42;3.50;1.00
32215;DHT22;18708;53.124;23.190;2023-02-28T08:27:09;3.10;1.00
32215;DHT22;18708;53.124;23.190;2023-02-28T08:29:37;3.00;1.00
32215;DHT22;18708;53.124;23.190;2023-02-28T08:32:03;3.20;1.00
32215;DHT22;18708;53.124;23.190;2023-02-28T08:34:29;4.70;1.00
32215;DHT22;18708;53.124;23.190;2023-02-28T08:36:55;4.70;1.00
32215;DHT22;18708;53.124;23.190;2023-02-28T08:39:21;5.40;99.90
32215;DHT22;18708;53.124;23.190;2023-02-28T08:41:46;6.20;99.90
32215;DHT22;18708;53.124;23.190;2023-02-28T08:44:12;7.40;99.90
32215;DHT22;18708;53.124;23.190;2023-02-28T08:46:38;7.90;1.00
32215;DHT22;18708;53.124;23.190;2023-02-28T08:49:04;8.10;1.00
32215;DHT22;18708;53.124;23.190;2023-02-28T08:51:30;7.90;1.00
32215;DHT22;18708;53.124;23.190;2023-02-28T08:53:59;7.70;1.00
32215;DHT22;18708;53.124;23.190;2023-02-28T08:56:28;7.70;1.00
32215;DHT22;18708;53.124;23.190;2023-02-28T08:58:55;6.60;1.00
32215;DHT22;18708;53.124;23.190;2023-02-28T09:01:23;7.80;1.00
32215;DHT22;18708;53.124;23.190;2023-02-28T09:03:50;7.90;1.00
32215;DHT22;18708;53.124;23.190;2023-02-28T09:06:18;8.00;1.00
32215;DHT22;18708;53.124;23.190;2023-02-28T09:08:44;7.50;99.90
32215;DHT22;18708;53.124;23.190;2023-02-28T09:11:10;7.10;1.00
32215;DHT22;18708;53.124;23.190;2023-02-28T09:13:37;6.40;99.90
32215;DHT22;18708;53.124;23.190;2023-02-28T09:16:05;4.80;99.90
32215;DHT22;18708;53.124;23.190;2023-02-28T09:18:33;4.70;99.90
32215;DHT22;18708;53.124;23.190;2023-02-28T09:20:59;6.50;1.00
32215;DHT22;18708;53.124;23.190;2023-02-28T09:23:27;7.50;99.90
32215;DHT22;18708;53.124;23.190;2023-02-28T09:25:54;7.10;99.90
32215;DHT22;18708;53.124;23.190;2023-02-28T09:28:21;8.70;1.00
32215;DHT22;18708;53.124;23.190;2023-02-28T09:30:52;8.80;99.90
32215;DHT22;18708;53.124;23.190;2023-02-28T09:33:19;8.90;99.90
32215;DHT22;18708;53.124;23.190;2023-02-28T09:35:49;8.40;99.90
32215;DHT22;18708;53.124;23.190;2023-02-28T09:38:15;6.20;99.90
32215;DHT22;18708;53.124;23.190;2023-02-28T09:40:58;6.20;99.90
32215;DHT22;18708;53.124;23.190;2023-02-28T09:43:28;8.20;99.90
32215;DHT22;18708;53.124;23.190;2023-02-28T09:46:25;7.90;99.90
32215;DHT22;18708;53.124;23.190;2023-02-28T09:48:52;8.00;99.90
32215;DHT22;18708;53.124;23.190;2023-02-28T09:54:04;7.50;99.90
32215;DHT22;18708;53.124;23.190;2023-02-28T09:56:36;9.40;99.90
32215;DHT22;18708;53.124;23.190;2023-02-28T10:07:30;8.50;99.90
32215;DHT22;18708;53.124;23.190;2023-02-28T10:10:06;6.90;47.30
32215;DHT22;18708;53.124;23.190;2023-02-28T10:12:45;5.80;60.10
32215;DHT22;18708;53.124;23.190;2023-02-28T10:15:16;7.30;99.90
32215;DHT22;18708;53.124;23.190;2023-02-28T10:17:47;9.20;99.90
32215;DHT22;18708;53.124;23.190;2023-02-28T10:20:20;9.60;99.90
32215;DHT22;18708;53.124;23.190;2023-02-28T10:23:00;10.20;99.90
32215;DHT22;18708;53.124;23.190;2023-02-28T10:25:33;9.60;34.00
32215;DHT22;18708;53.124;23.190;2023-02-28T10:28:15;9.30;99.90
32215;DHT22;18708;53.124;23.190;2023-02-28T10:30:49;9.80;99.90
32215;DHT22;18708;53.124;23.190;2023-02-28T10:33:25;9.70;72.70
32215;DHT22;18708;53.124;23.190;2023-02-28T10:35:53;10.10;98.40
32215;DHT22;18708;53.124;23.190;2023-02-28T10:38:25;9.30;38.20
32215;DHT22;18708;53.124;23.190;2023-02-28T10:40:51;8.20;1.00
32215;DHT22;18708;53.124;23.190;2023-02-28T10:48:40;8.90;1.00
32215;DHT22;18708;53.124;23.190;2023-02-28T10:51:12;9.80;81.30
32215;DHT22;18708;53.124;23.190;2023-02-28T10:56:19;9.70;4.30
32215;DHT22;18708;53.124;23.190;2023-02-28T10:58:57;9.60;26.50
32215;DHT22;18708;53.124;23.190;2023-02-28T11:04:01;6.10;1.00
32215;DHT22;18708;53.124;23.190;2023-02-28T11:06:31;7.50;37.70
32215;DHT22;18708;53.124;23.190;2023-02-28T11:09:23;9.30;81.70
32215;DHT22;18708;53.124;23.190;2023-02-28T11:11:50;10.00;62.70
32215;DHT22;18708;53.124;23.190;2023-02-28T11:14:26;10.20;48.90
32215;DHT22;18708;53.124;23.190;2023-02-28T11:16:53;8.30;1.00
32215;DHT22;18708;53.124;23.190;2023-02-28T11:19:26;9.40;31.90
32215;DHT22;18708;53.124;23.190;2023-02-28T11:22:01;8.30;1.00
32215;DHT22;18708;53.124;23.190;2023-02-28T11:24:34;7.20;1.00
32215;DHT22;18708;53.124;23.190;2023-02-28T11:27:00;6.90;1.00
32215;DHT22;18708;53.124;23.190;2023-02-28T11:29:28;6.90;1.00
32215;DHT22;18708;53.124;23.190;2023-02-28T11:32:16;7.70;1.00
32215;DHT22;18708;53.124;23.190;2023-02-28T11:34:43;8.40;27.20
32215;DHT22;18708;53.124;23.190;2023-02-28T11:37:18;9.20;4.80
32215;DHT22;18708;53.124;23.190;2023-02-28T11:39:45;8.10;1.00
32215;DHT22;18708;53.124;23.190;2023-02-28T11:42:15;8.60;1.00
32215;DHT22;18708;53.124;23.190;2023-02-28T11:47:42;9.50;1.00
32215;DHT22;18708;53.124;23.190;2023-02-28T11:56:08;10.20;1.00
32215;DHT22;18708;53.124;23.190;2023-02-28T12:03:43;9.20;1.00
32215;DHT22;18708;53.124;23.190;2023-02-28T12:06:40;10.20;1.00
32215;DHT22;18708;53.124;23.190;2023-02-28T12:12:19;9.00;1.00
32215;DHT22;18708;53.124;23.190;2023-02-28T12:15:24;8.70;1.00
32215;DHT22;18708;53.124;23.190;2023-02-28T12:23:56;10.60;1.00
32215;DHT22;18708;53.124;23.190;2023-02-28T12:26:30;10.70;1.00
32215;DHT22;18708;53.124;23.190;2023-02-28T12:29:02;10.40;1.00
32215;DHT22;18708;53.124;23.190;2023-02-28T12:31:32;8.60;1.00
32215;DHT22;18708;53.124;23.190;2023-02-28T12:34:20;8.40;1.00
32215;DHT22;18708;53.124;23.190;2023-02-28T12:36:49;9.40;1.00
32215;DHT22;18708;53.124;23.190;2023-02-28T12:39:23;10.00;1.00
32215;DHT22;18708;53.124;23.190;2023-02-28T12:42:01;10.20;1.00
32215;DHT22;18708;53.124;23.190;2023-02-28T12:44:46;10.10;1.00
32215;DHT22;18708;53.124;23.190;2023-02-28T12:47:16;9.20;1.00
32215;DHT22;18708;53.124;23.190;2023-02-28T12:52:13;9.00;1.00
32215;DHT22;18708;53.124;23.190;2023-02-28T12:55:32;9.00;1.00
32215;DHT22;18708;53.124;23.190;2023-02-28T13:00:35;9.20;1.00
32215;DHT22;18708;53.124;23.190;2023-02-28T13:11:40;8.20;1.00
32215;DHT22;18708;53.124;23.190;2023-02-28T13:16:56;8.80;1.00
32215;DHT22;18708;53.124;23.190;2023-02-28T13:19:25;8.80;1.00
32215;DHT22;18708;53.124;23.190;2023-02-28T13:21:51;8.00;1.00
32215;DHT22;18708;53.124;23.190;2023-02-28T13:29:36;8.30;1.00
32215;DHT22;18708;53.124;23.190;2023-02-28T13:34:41;7.60;1.00
32215;DHT22;18708;53.124;23.190;2023-02-28T13:47:44;5.80;1.00
32215;DHT22;18708;53.124;23.190;2023-02-28T14:06:29;4.70;1.00
32215;DHT22;18708;53.124;23.190;2023-02-28T14:09:15;4.40;1.00
32215;DHT22;18708;53.124;23.190;2023-02-28T14:11:43;4.40;1.00
32215;DHT22;18708;53.124;23.190;2023-02-28T14:17:08;4.30;1.00
32215;DHT22;18708;53.124;23.190;2023-02-28T14:19:44;4.30;1.00
32215;DHT22;18708;53.124;23.190;2023-02-28T14:25:33;3.80;1.00
32215;DHT22;18708;53.124;23.190;2023-02-28T14:28:49;3.80;1.00
32215;DHT22;18708;53.124;23.190;2023-02-28T14:31:29;3.70;1.00
32215;DHT22;18708;53.124;23.190;2023-02-28T14:36:40;3.60;1.00
32215;DHT22;18708;53.124;23.190;2023-02-28T14:39:14;3.50;1.00
32215;DHT22;18708;53.124;23.190;2023-02-28T14:41:41;3.30;1.00
32215;DHT22;18708;53.124;23.190;2023-02-28T14:44:22;3.40;1.00
32215;DHT22;18708;53.124;23.190;2023-02-28T14:46:54;3.30;1.00
32215;DHT22;18708;53.124;23.190;2023-02-28T14:49:37;3.20;1.00
32215;DHT22;18708;53.124;23.190;2023-02-28T14:54:39;3.20;1.00
32215;DHT22;18708;53.124;23.190;2023-02-28T14:57:05;3.10;1.00
32215;DHT22;18708;53.124;23.190;2023-02-28T14:59:33;3.10;1.00
32215;DHT22;18708;53.124;23.190;2023-02-28T15:02:21;3.10;1.00
32215;DHT22;18708;53.124;23.190;2023-02-28T15:04:59;3.00;1.00
32215;DHT22;18708;53.124;23.190;2023-02-28T15:07:25;2.90;1.00
32215;DHT22;18708;53.124;23.190;2023-02-28T15:10:09;2.90;1.00
32215;DHT22;18708;53.124;23.190;2023-02-28T15:12:35;2.80;1.00
32215;DHT22;18708;53.124;23.190;2023-02-28T15:15:02;2.70;1.00
32215;DHT22;18708;53.124;23.190;2023-02-28T15:17:28;2.70;1.00
32215;DHT22;18708;53.124;23.190;2023-02-28T15:19:54;2.60;1.00
32215;DHT22;18708;53.124;23.190;2023-02-28T15:22:31;2.60;1.00
32215;DHT22;18708;53.124;23.190;2023-02-28T15:24:59;2.50;1.00
32215;DHT22;18708;53.124;23.190;2023-02-28T15:27:27;2.60;1.00
32215;DHT22;18708;53.124;23.190;2023-02-28T15:30:08;2.70;1.00
32215;DHT22;18708;53.124;23.190;2023-02-28T15:32:36;2.50;1.00
32215;DHT22;18708;53.124;23.190;2023-02-28T15:35:37;2.40;1.00
32215;DHT22;18708;53.124;23.190;2023-02-28T15:38:15;2.40;1.00
32215;DHT22;18708;53.124;23.190;2023-02-28T15:40:46;2.30;1.00
32215;DHT22;18708;53.124;23.190;2023-02-28T15:50:53;2.00;1.00
32215;DHT22;18708;53.124;23.190;2023-02-28T15:53:45;2.10;1.00
32215;DHT22;18708;53.124;23.190;2023-02-28T15:56:25;2.10;1.00
32215;DHT22;18708;53.124;23.190;2023-02-28T15:58:54;1.90;1.00
32215;DHT22;18708;53.124;23.190;2023-02-28T16:01:25;1.90;1.00
32215;DHT22;18708;53.124;23.190;2023-02-28T16:03:54;1.80;1.00
32215;DHT22;18708;53.124;23.190;2023-02-28T16:09:17;1.60;1.00
32215;DHT22;18708;53.124;23.190;2023-02-28T16:11:48;1.50;1.00
32215;DHT22;18708;53.124;23.190;2023-02-28T16:14:17;1.40;1.00
32215;DHT22;18708;53.124;23.190;2023-02-28T16:16:49;1.40;1.00
32215;DHT22;18708;53.124;23.190;2023-02-28T16:19:15;1.30;1.00
32215;DHT22;18708;53.124;23.190;2023-02-28T16:21:42;1.40;1.00
32215;DHT22;18708;53.124;23.190;2023-02-28T16:24:07;1.30;18.80
32215;DHT22;18708;53.124;23.190;2023-02-28T16:26:33;1.20;79.40
32215;DHT22;18708;53.124;23.190;2023-02-28T16:29:01;1.10;99.90
32215;DHT22;18708;53.124;23.190;2023-02-28T16:31:27;1.00;99.90
32215;DHT22;18708;53.124;23.190;2023-02-28T16:33:53;0.90;99.90
32215;DHT22;18708;53.124;23.190;2023-02-28T16:36:23;0.80;99.90
32215;DHT22;18708;53.124;23.190;2023-02-28T16:38:54;0.80;99.90
32215;DHT22;18708;53.124;23.190;2023-02-28T16:41:22;0.70;99.90
32215;DHT22;18708;53.124;23.190;2023-02-28T16:43:52;0.70;99.90
32215;DHT22;18708;53.124;23.190;2023-02-28T16:46:19;0.70;99.90
32215;DHT22;18708;53.124;23.190;2023-02-28T16:48:45;0.60;99.90
32215;DHT22;18708;53.124;23.190;2023-02-28T16:51:14;0.60;99.90
32215;DHT22;18708;53.124;23.190;2023-02-28T16:53:41;0.50;99.90
32215;DHT22;18708;53.124;23.190;2023-02-28T16:56:17;0.50;99.90
32215;DHT22;18708;53.124;23.190;2023-02-28T16:58:44;0.40;1.00
32215;DHT22;18708;53.124;23.190;2023-02-28T17:01:10;0.40;1.00
32215;DHT22;18708;53.124;23.190;2023-02-28T17:03:36;0.40;1.00
32215;DHT22;18708;53.124;23.190;2023-02-28T17:06:03;0.30;1.00
32215;DHT22;18708;53.124;23.190;2023-02-28T17:08:30;0.20;1.00
32215;DHT22;18708;53.124;23.190;2023-02-28T17:10:57;0.30;1.00
32215;DHT22;18708;53.124;23.190;2023-02-28T17:13:23;0.20;1.00
32215;DHT22;18708;53.124;23.190;2023-02-28T17:15:49;0.10;1.00
32215;DHT22;18708;53.124;23.190;2023-02-28T17:18:18;0.10;1.90
32215;DHT22;18708;53.124;23.190;2023-02-28T17:20:45;0.00;99.90
32215;DHT22;18708;53.124;23.190;2023-02-28T17:23:11;0.00;99.90
32215;DHT22;18708;53.124;23.190;2023-02-28T17:25:37;-0.10;99.90
32215;DHT22;18708;53.124;23.190;2023-02-28T17:28:03;-0.20;99.90
32215;DHT22;18708;53.124;23.190;2023-02-28T17:30:33;-0.20;1.00
32215;DHT22;18708;53.124;23.190;2023-02-28T17:32:59;-0.20;1.00
32215;DHT22;18708;53.124;23.190;2023-02-28T17:35:25;-0.30;1.00
32215;DHT22;18708;53.124;23.190;2023-02-28T17:37:52;-0.30;1.00
32215;DHT22;18708;53.124;23.190;2023-02-28T17:40:23;-0.30;1.00
32215;DHT22;18708;53.124;23.190;2023-02-28T17:42:48;-0.40;1.00
32215;DHT22;18708;53.124;23.190;2023-02-28T17:45:15;-0.50;1.00
32215;DHT22;18708;53.124;23.190;2023-02-28T17:47:42;-0.50;1.00
32215;DHT22;18708;53.124;23.190;2023-02-28T17:50:21;-0.60;99.90
32215;DHT22;18708;53.124;23.190;2023-02-28T17:52:48;-0.50;99.90
32215;DHT22;18708;53.124;23.190;2023-02-28T17:55:15;-0.50;99.90
32215;DHT22;18708;53.124;23.190;2023-02-28T17:57:41;-0.50;99.90
32215;DHT22;18708;53.124;23.190;2023-02-28T18:00:08;-0.50;99.90
32215;DHT22;18708;53.124;23.190;2023-02-28T18:02:34;-0.60;99.90
32215;DHT22;18708;53.124;23.190;2023-02-28T18:05:00;-0.50;99.90
32215;DHT22;18708;53.124;23.190;2023-02-28T18:07:25;-0.40;99.90
32215;DHT22;18708;53.124;23.190;2023-02-28T18:09:51;-0.30;99.90
32215;DHT22;18708;53.124;23.190;2023-02-28T18:12:17;-0.40;99.90
32215;DHT22;18708;53.124;23.190;2023-02-28T18:14:42;-0.40;99.90